KPBF/PBF METAR and TAF weather

Enter ICAO airport designator
Station Type Date Time Source
KPBF METAR 2021/01/27 12:36 UTC NOAA

KPBF 271236Z AUTO 33014KT 10SM BKN015 OVC100 04/01 A3016 RMK AO2 T00440011


Station Type Date Time Source
KPBF Decoded METAR 2021/01/27 12:36 UTC NOAA

PINE BLUFF GRIDER FIELD, AR, United States (KPBF) 34-11N 091-56W 62M
Jan 27, 2021 - 07:36 AM EST / 2021.01.27 1236 UTC
Wind: from the NNW (330 degrees) at 16 MPH (14 KT):0
Visibility: 10 mile(s):0
Sky conditions: overcast
Temperature: 39.9 F (4.4 C)
Dew Point: 34.0 F (1.1 C)
Relative Humidity: 79%
Pressure (altimeter): 30.16 in. Hg (1021 hPa)
ob: KPBF 271236Z AUTO 33014KT 10SM BKN015 OVC100 04/01 A3016 RMK AO2 T00440011
cycle: 12

Station Type Date Time Source
KPBF TAF 2021/01/27 12:42 UTC NOAA

TAF KPBF 271139Z 2712/2812 01009KT P6SM BKN100
TEMPO 2713/2717 5SM -RA BR SCT015 OVC025
FM271900 33011G17KT P6SM BKN015 OVC035
FM280200 35009KT P6SM SCT015 BKN035

Example: see airport list